Rechercher aéroport 
image banner adimage banner adimage banner ad
image banner ad

09CL - Alta Sierra

Situé à Grass Valley, United States

ICAO - 09CL, IATA -

Données fournies par Airmate  

Information générale

Coordonnées: N39°6'43" W121°3'19"
Élévation : 2280 feet MSL.
Variation magnétique : 16° East
Voir autres Aéroports à California

Données opérationnelles

Special qualification required
Heure actuelle UTC:
Heure actuelle locale:
Météo à : KGOO - Nevada County Air Park ( 13 km )
METAR: KGOO 251435Z AUTO 00000KT 10SM OVC049 25/04 A3004 RMK A01
Voir NOTAMs / SUP AIP / TFR affectant cet aéroport [VIEW]
Fréquences de communication: [VIEW]

Pistes:

Identifiant RWYQFULongueur (ft)Largeur (ft)SurfaceLDA (ft)
01283450ASPH
19283450ASPH

Coordonnées de l'aéroport

Adresse: Grass Valley United States

Vue satellite de 09CL